sensor_id;sensor_type;location;lat;lon;timestamp;pressure;altitude;pressure_sealevel;temperature;humidity
20119;BME280;10220;42.716;23.306;2023-02-13T00:00:32;97044.06;;;0.94;100.00
20119;BME280;10220;42.716;23.306;2023-02-13T00:02:58;97010.56;;;0.61;100.00
20119;BME280;10220;42.716;23.306;2023-02-13T00:05:23;97010.50;;;0.88;100.00
20119;BME280;10220;42.716;23.306;2023-02-13T00:07:49;97042.16;;;0.98;100.00
20119;BME280;10220;42.716;23.306;2023-02-13T00:10:14;97044.56;;;0.87;100.00
20119;BME280;10220;42.716;23.306;2023-02-13T00:12:40;97020.34;;;0.67;100.00
20119;BME280;10220;42.716;23.306;2023-02-13T00:15:06;97048.84;;;0.86;100.00
20119;BME280;10220;42.716;23.306;2023-02-13T00:17:32;97051.84;;;0.66;100.00
20119;BME280;10220;42.716;23.306;2023-02-13T00:19:58;97051.59;;;0.83;100.00
20119;BME280;10220;42.716;23.306;2023-02-13T00:22:23;97061.63;;;0.60;100.00
20119;BME280;10220;42.716;23.306;2023-02-13T00:24:49;97033.50;;;0.35;100.00
20119;BME280;10220;42.716;23.306;2023-02-13T00:27:15;97046.59;;;0.56;100.00
20119;BME280;10220;42.716;23.306;2023-02-13T00:29:41;97039.53;;;0.73;100.00
20119;BME280;10220;42.716;23.306;2023-02-13T00:32:07;97042.16;;;0.71;100.00
20119;BME280;10220;42.716;23.306;2023-02-13T00:34:33;97025.78;;;0.23;100.00
20119;BME280;10220;42.716;23.306;2023-02-13T00:36:58;97058.66;;;0.66;100.00
20119;BME280;10220;42.716;23.306;2023-02-13T00:39:23;97031.56;;;0.65;100.00
20119;BME280;10220;42.716;23.306;2023-02-13T00:41:49;97050.94;;;0.41;100.00
20119;BME280;10220;42.716;23.306;2023-02-13T00:44:14;97060.56;;;0.50;100.00
20119;BME280;10220;42.716;23.306;2023-02-13T00:46:40;97048.44;;;0.54;100.00
20119;BME280;10220;42.716;23.306;2023-02-13T00:49:05;97050.75;;;0.70;100.00
20119;BME280;10220;42.716;23.306;2023-02-13T00:51:31;97015.22;;;0.55;100.00
20119;BME280;10220;42.716;23.306;2023-02-13T00:53:57;97051.44;;;0.72;100.00
20119;BME280;10220;42.716;23.306;2023-02-13T00:56:22;97055.88;;;0.83;100.00
20119;BME280;10220;42.716;23.306;2023-02-13T00:58:47;97031.22;;;0.57;100.00
20119;BME280;10220;42.716;23.306;2023-02-13T01:01:13;97073.00;;;0.81;100.00
20119;BME280;10220;42.716;23.306;2023-02-13T01:03:38;97067.59;;;0.85;100.00
20119;BME280;10220;42.716;23.306;2023-02-13T01:06:04;97058.56;;;0.67;100.00
20119;BME280;10220;42.716;23.306;2023-02-13T01:08:29;97065.09;;;0.71;100.00
20119;BME280;10220;42.716;23.306;2023-02-13T01:10:55;97067.97;;;0.67;100.00
20119;BME280;10220;42.716;23.306;2023-02-13T01:13:21;97033.00;;;0.69;100.00
20119;BME280;10220;42.716;23.306;2023-02-13T01:15:47;97054.34;;;0.80;100.00
20119;BME280;10220;42.716;23.306;2023-02-13T01:18:14;97060.06;;;0.84;100.00
20119;BME280;10220;42.716;23.306;2023-02-13T01:20:41;97066.81;;;0.85;100.00
20119;BME280;10220;42.716;23.306;2023-02-13T01:23:08;97057.16;;;1.02;100.00
20119;BME280;10220;42.716;23.306;2023-02-13T01:25:34;97047.09;;;0.87;100.00
20119;BME280;10220;42.716;23.306;2023-02-13T01:27:59;97061.50;;;0.88;100.00
20119;BME280;10220;42.716;23.306;2023-02-13T01:30:24;97059.59;;;0.91;100.00
20119;BME280;10220;42.716;23.306;2023-02-13T01:32:50;97078.78;;;0.70;100.00
20119;BME280;10220;42.716;23.306;2023-02-13T01:35:15;97087.50;;;0.40;100.00
20119;BME280;10220;42.716;23.306;2023-02-13T01:37:41;97081.91;;;0.61;100.00
20119;BME280;10220;42.716;23.306;2023-02-13T01:40:10;97090.53;;;0.33;100.00
20119;BME280;10220;42.716;23.306;2023-02-13T01:42:36;97088.44;;;0.25;100.00
20119;BME280;10220;42.716;23.306;2023-02-13T01:45:04;97080.50;;;0.30;100.00
20119;BME280;10220;42.716;23.306;2023-02-13T01:47:46;97084.38;;;0.09;100.00
20119;BME280;10220;42.716;23.306;2023-02-13T01:53:11;97064.84;;;-0.04;100.00
20119;BME280;10220;42.716;23.306;2023-02-13T01:55:44;97095.28;;;-0.03;100.00
20119;BME280;10220;42.716;23.306;2023-02-13T01:58:13;97094.28;;;-0.01;100.00
20119;BME280;10220;42.716;23.306;2023-02-13T02:00:41;97106.22;;;-0.15;100.00
20119;BME280;10220;42.716;23.306;2023-02-13T02:03:12;97071.78;;;-0.20;100.00
20119;BME280;10220;42.716;23.306;2023-02-13T02:05:38;97061.13;;;-0.41;100.00
20119;BME280;10220;42.716;23.306;2023-02-13T02:08:07;97086.72;;;0.26;100.00
20119;BME280;10220;42.716;23.306;2023-02-13T02:10:35;97082.94;;;0.45;100.00
20119;BME280;10220;42.716;23.306;2023-02-13T02:13:11;97067.38;;;0.50;100.00
20119;BME280;10220;42.716;23.306;2023-02-13T02:15:38;97075.69;;;0.39;100.00
20119;BME280;10220;42.716;23.306;2023-02-13T02:18:18;97063.47;;;0.44;100.00
20119;BME280;10220;42.716;23.306;2023-02-13T02:29:28;97069.81;;;0.65;100.00
20119;BME280;10220;42.716;23.306;2023-02-13T02:32:09;97071.16;;;0.70;100.00
20119;BME280;10220;42.716;23.306;2023-02-13T02:37:47;97082.81;;;0.60;100.00
20119;BME280;10220;42.716;23.306;2023-02-13T02:40:24;97092.56;;;0.54;100.00
20119;BME280;10220;42.716;23.306;2023-02-13T02:45:55;97082.47;;;-0.02;100.00
20119;BME280;10220;42.716;23.306;2023-02-13T02:51:36;97114.34;;;0.46;100.00
20119;BME280;10220;42.716;23.306;2023-02-13T02:54:14;97121.66;;;0.38;100.00
20119;BME280;10220;42.716;23.306;2023-02-13T02:57:05;97097.91;;;0.23;100.00
20119;BME280;10220;42.716;23.306;2023-02-13T02:59:33;97111.13;;;0.02;100.00
20119;BME280;10220;42.716;23.306;2023-02-13T03:02:19;97101.59;;;0.05;100.00
20119;BME280;10220;42.716;23.306;2023-02-13T03:05:14;97114.56;;;0.01;100.00
20119;BME280;10220;42.716;23.306;2023-02-13T03:08:01;97133.88;;;-0.09;100.00
20119;BME280;10220;42.716;23.306;2023-02-13T03:10:30;97110.47;;;-0.02;100.00
20119;BME280;10220;42.716;23.306;2023-02-13T03:13:40;97101.28;;;-0.32;100.00
20119;BME280;10220;42.716;23.306;2023-02-13T03:16:11;97081.09;;;-0.49;100.00
20119;BME280;10220;42.716;23.306;2023-02-13T03:18:58;97102.28;;;-0.34;100.00
20119;BME280;10220;42.716;23.306;2023-02-13T03:22:26;97097.75;;;-0.02;100.00
20119;BME280;10220;42.716;23.306;2023-02-13T03:25:17;97100.28;;;0.12;100.00
20119;BME280;10220;42.716;23.306;2023-02-13T03:27:58;97114.28;;;0.33;100.00
20119;BME280;10220;42.716;23.306;2023-02-13T03:39:17;97085.09;;;-0.45;100.00
20119;BME280;10220;42.716;23.306;2023-02-13T03:41:50;97106.28;;;-0.44;100.00
20119;BME280;10220;42.716;23.306;2023-02-13T03:46:52;97116.28;;;-0.41;100.00
20119;BME280;10220;42.716;23.306;2023-02-13T03:49:41;97107.13;;;-0.30;100.00
20119;BME280;10220;42.716;23.306;2023-02-13T03:55:36;97047.31;;;-0.64;100.00
20119;BME280;10220;42.716;23.306;2023-02-13T03:58:35;97129.00;;;-0.27;100.00
20119;BME280;10220;42.716;23.306;2023-02-13T04:01:25;97107.31;;;-0.19;100.00
20119;BME280;10220;42.716;23.306;2023-02-13T04:06:37;97116.66;;;-0.33;100.00
20119;BME280;10220;42.716;23.306;2023-02-13T04:09:03;97102.31;;;-0.20;100.00
20119;BME280;10220;42.716;23.306;2023-02-13T04:14:39;97123.09;;;-0.28;100.00
20119;BME280;10220;42.716;23.306;2023-02-13T04:17:13;97065.53;;;-0.72;100.00
20119;BME280;10220;42.716;23.306;2023-02-13T04:19:40;97118.41;;;-0.34;100.00
20119;BME280;10220;42.716;23.306;2023-02-13T04:22:05;97126.13;;;-0.21;100.00
20119;BME280;10220;42.716;23.306;2023-02-13T04:24:31;97130.50;;;-0.23;100.00
20119;BME280;10220;42.716;23.306;2023-02-13T04:26:56;97120.16;;;-0.50;100.00
20119;BME280;10220;42.716;23.306;2023-02-13T04:29:23;97131.75;;;-0.30;100.00
20119;BME280;10220;42.716;23.306;2023-02-13T04:31:49;97045.72;;;-0.81;100.00
20119;BME280;10220;42.716;23.306;2023-02-13T04:34:15;97116.47;;;-0.44;100.00
20119;BME280;10220;42.716;23.306;2023-02-13T04:36:40;97118.38;;;-0.48;100.00
20119;BME280;10220;42.716;23.306;2023-02-13T04:39:06;97117.34;;;-0.59;100.00
20119;BME280;10220;42.716;23.306;2023-02-13T04:41:31;97113.28;;;-0.48;100.00
20119;BME280;10220;42.716;23.306;2023-02-13T04:43:57;97093.13;;;-0.51;100.00
20119;BME280;10220;42.716;23.306;2023-02-13T04:46:22;97104.91;;;-0.50;100.00
20119;BME280;10220;42.716;23.306;2023-02-13T04:48:48;97135.50;;;-0.22;100.00
20119;BME280;10220;42.716;23.306;2023-02-13T04:51:13;97119.44;;;-0.38;100.00
20119;BME280;10220;42.716;23.306;2023-02-13T04:53:39;97126.38;;;-0.69;100.00
20119;BME280;10220;42.716;23.306;2023-02-13T04:56:04;97154.63;;;-0.73;100.00
20119;BME280;10220;42.716;23.306;2023-02-13T04:58:30;97126.31;;;-0.97;100.00
20119;BME280;10220;42.716;23.306;2023-02-13T05:00:55;97149.13;;;-0.52;100.00
20119;BME280;10220;42.716;23.306;2023-02-13T05:03:20;97141.50;;;-0.52;100.00
20119;BME280;10220;42.716;23.306;2023-02-13T05:05:47;97151.75;;;-1.12;100.00
20119;BME280;10220;42.716;23.306;2023-02-13T05:08:12;97131.31;;;-0.95;100.00
20119;BME280;10220;42.716;23.306;2023-02-13T05:10:38;97117.41;;;-1.19;100.00
20119;BME280;10220;42.716;23.306;2023-02-13T05:13:03;97103.28;;;-1.09;100.00
20119;BME280;10220;42.716;23.306;2023-02-13T05:15:28;97145.75;;;-0.66;100.00
20119;BME280;10220;42.716;23.306;2023-02-13T05:17:54;97151.75;;;-0.67;100.00
20119;BME280;10220;42.716;23.306;2023-02-13T05:20:19;97118.56;;;-0.80;100.00
20119;BME280;10220;42.716;23.306;2023-02-13T05:22:50;97095.38;;;-0.89;100.00
20119;BME280;10220;42.716;23.306;2023-02-13T05:25:35;97165.31;;;-0.82;100.00
20119;BME280;10220;42.716;23.306;2023-02-13T05:28:02;97164.72;;;-0.72;100.00
20119;BME280;10220;42.716;23.306;2023-02-13T05:30:27;97150.91;;;-0.68;100.00
20119;BME280;10220;42.716;23.306;2023-02-13T05:32:53;97148.78;;;-0.75;100.00
20119;BME280;10220;42.716;23.306;2023-02-13T05:35:20;97150.59;;;-0.62;100.00
20119;BME280;10220;42.716;23.306;2023-02-13T05:37:46;97173.63;;;-0.65;100.00
20119;BME280;10220;42.716;23.306;2023-02-13T05:40:12;97154.34;;;-0.40;100.00
20119;BME280;10220;42.716;23.306;2023-02-13T05:42:38;97118.00;;;-0.56;100.00
20119;BME280;10220;42.716;23.306;2023-02-13T05:45:04;97175.75;;;-0.28;100.00
20119;BME280;10220;42.716;23.306;2023-02-13T05:47:30;97159.81;;;-0.32;100.00
20119;BME280;10220;42.716;23.306;2023-02-13T05:49:55;97183.59;;;-0.47;100.00
20119;BME280;10220;42.716;23.306;2023-02-13T05:52:21;97181.25;;;-0.65;100.00
20119;BME280;10220;42.716;23.306;2023-02-13T05:54:47;97186.91;;;-0.89;100.00
20119;BME280;10220;42.716;23.306;2023-02-13T05:57:12;97188.69;;;-0.91;100.00
20119;BME280;10220;42.716;23.306;2023-02-13T05:59:37;97176.72;;;-0.89;100.00
20119;BME280;10220;42.716;23.306;2023-02-13T06:02:03;97114.97;;;-0.91;100.00
20119;BME280;10220;42.716;23.306;2023-02-13T06:04:28;97140.69;;;-0.82;100.00
20119;BME280;10220;42.716;23.306;2023-02-13T06:06:54;97145.16;;;-0.85;100.00
20119;BME280;10220;42.716;23.306;2023-02-13T06:09:19;97191.03;;;-0.73;100.00
20119;BME280;10220;42.716;23.306;2023-02-13T06:11:44;97186.91;;;-0.89;100.00
20119;BME280;10220;42.716;23.306;2023-02-13T06:14:10;97196.19;;;-1.04;100.00
20119;BME280;10220;42.716;23.306;2023-02-13T06:16:36;97189.47;;;-0.75;100.00
20119;BME280;10220;42.716;23.306;2023-02-13T06:19:01;97170.75;;;-0.88;100.00
20119;BME280;10220;42.716;23.306;2023-02-13T06:21:27;97158.72;;;-0.71;100.00
20119;BME280;10220;42.716;23.306;2023-02-13T06:23:52;97188.09;;;-0.22;100.00
20119;BME280;10220;42.716;23.306;2023-02-13T06:26:18;97171.75;;;-0.32;100.00
20119;BME280;10220;42.716;23.306;2023-02-13T06:28:43;97196.19;;;-0.16;100.00
20119;BME280;10220;42.716;23.306;2023-02-13T06:31:09;97152.81;;;-0.42;100.00
20119;BME280;10220;42.716;23.306;2023-02-13T06:33:34;97202.47;;;-0.21;100.00
20119;BME280;10220;42.716;23.306;2023-02-13T06:35:59;97193.72;;;0.12;100.00
20119;BME280;10220;42.716;23.306;2023-02-13T06:38:25;97195.06;;;0.31;100.00
20119;BME280;10220;42.716;23.306;2023-02-13T06:40:51;97160.31;;;0.02;100.00
20119;BME280;10220;42.716;23.306;2023-02-13T06:43:16;97126.19;;;-0.37;100.00
20119;BME280;10220;42.716;23.306;2023-02-13T06:45:42;97203.34;;;0.35;100.00
20119;BME280;10220;42.716;23.306;2023-02-13T06:48:09;97188.13;;;0.61;100.00
20119;BME280;10220;42.716;23.306;2023-02-13T06:50:34;97199.94;;;0.90;100.00
20119;BME280;10220;42.716;23.306;2023-02-13T06:53:00;97196.59;;;0.61;100.00
20119;BME280;10220;42.716;23.306;2023-02-13T06:55:26;97195.34;;;0.95;100.00
20119;BME280;10220;42.716;23.306;2023-02-13T06:57:51;97196.50;;;0.77;100.00
20119;BME280;10220;42.716;23.306;2023-02-13T07:00:17;97185.34;;;1.18;100.00
20119;BME280;10220;42.716;23.306;2023-02-13T07:02:44;97198.97;;;1.57;100.00
20119;BME280;10220;42.716;23.306;2023-02-13T07:05:10;97158.72;;;1.48;100.00
20119;BME280;10220;42.716;23.306;2023-02-13T07:07:38;97183.22;;;1.51;100.00
20119;BME280;10220;42.716;23.306;2023-02-13T07:10:05;97174.63;;;1.52;100.00
20119;BME280;10220;42.716;23.306;2023-02-13T07:12:34;97195.59;;;1.69;100.00
20119;BME280;10220;42.716;23.306;2023-02-13T07:15:01;97176.91;;;1.56;100.00
20119;BME280;10220;42.716;23.306;2023-02-13T07:17:26;97193.59;;;1.86;100.00
20119;BME280;10220;42.716;23.306;2023-02-13T07:19:52;97170.78;;;1.71;100.00
20119;BME280;10220;42.716;23.306;2023-02-13T07:22:17;97152.22;;;1.43;100.00
20119;BME280;10220;42.716;23.306;2023-02-13T07:24:43;97191.63;;;1.77;100.00
20119;BME280;10220;42.716;23.306;2023-02-13T07:27:08;97171.00;;;1.93;100.00
20119;BME280;10220;42.716;23.306;2023-02-13T07:29:33;97191.13;;;1.97;100.00
20119;BME280;10220;42.716;23.306;2023-02-13T07:31:59;97204.53;;;2.26;100.00
20119;BME280;10220;42.716;23.306;2023-02-13T07:34:24;97179.16;;;1.85;100.00
20119;BME280;10220;42.716;23.306;2023-02-13T07:36:50;97195.53;;;1.95;100.00
20119;BME280;10220;42.716;23.306;2023-02-13T07:39:15;97220.47;;;2.17;100.00
20119;BME280;10220;42.716;23.306;2023-02-13T07:41:41;97127.88;;;1.76;100.00
20119;BME280;10220;42.716;23.306;2023-02-13T07:44:06;97150.84;;;1.51;100.00
20119;BME280;10220;42.716;23.306;2023-02-13T07:46:31;97200.66;;;1.57;100.00
20119;BME280;10220;42.716;23.306;2023-02-13T07:48:57;97192.13;;;1.70;100.00
20119;BME280;10220;42.716;23.306;2023-02-13T07:51:22;97193.06;;;1.69;100.00
20119;BME280;10220;42.716;23.306;2023-02-13T07:53:53;97184.16;;;1.87;100.00
20119;BME280;10220;42.716;23.306;2023-02-13T07:56:19;97179.28;;;1.33;100.00
20119;BME280;10220;42.716;23.306;2023-02-13T07:58:44;97136.22;;;1.53;100.00
20119;BME280;10220;42.716;23.306;2023-02-13T08:01:13;97208.53;;;2.17;100.00
20119;BME280;10220;42.716;23.306;2023-02-13T08:03:39;97202.28;;;2.33;100.00
20119;BME280;10220;42.716;23.306;2023-02-13T08:06:06;97149.09;;;1.39;100.00
20119;BME280;10220;42.716;23.306;2023-02-13T08:08:32;97193.78;;;1.96;100.00
20119;BME280;10220;42.716;23.306;2023-02-13T08:11:06;97201.16;;;2.00;100.00
20119;BME280;10220;42.716;23.306;2023-02-13T08:13:50;97136.47;;;1.63;100.00
20119;BME280;10220;42.716;23.306;2023-02-13T08:16:16;97182.63;;;1.72;100.00
20119;BME280;10220;42.716;23.306;2023-02-13T08:18:41;97188.75;;;1.70;100.00
20119;BME280;10220;42.716;23.306;2023-02-13T08:21:06;97176.00;;;1.94;100.00
20119;BME280;10220;42.716;23.306;2023-02-13T08:23:32;97187.69;;;2.11;100.00
20119;BME280;10220;42.716;23.306;2023-02-13T08:26:00;97182.56;;;2.23;100.00
20119;BME280;10220;42.716;23.306;2023-02-13T08:28:27;97150.75;;;2.27;100.00
20119;BME280;10220;42.716;23.306;2023-02-13T08:30:53;97181.56;;;2.74;100.00
20119;BME280;10220;42.716;23.306;2023-02-13T08:33:19;97179.97;;;2.60;100.00
20119;BME280;10220;42.716;23.306;2023-02-13T08:35:44;97221.78;;;2.59;100.00
20119;BME280;10220;42.716;23.306;2023-02-13T08:38:10;97184.34;;;2.71;100.00
20119;BME280;10220;42.716;23.306;2023-02-13T08:40:35;97166.78;;;2.54;100.00
20119;BME280;10220;42.716;23.306;2023-02-13T08:43:03;97182.34;;;2.87;100.00
20119;BME280;10220;42.716;23.306;2023-02-13T08:45:29;97195.00;;;3.00;100.00
20119;BME280;10220;42.716;23.306;2023-02-13T08:47:59;97184.19;;;3.20;100.00
20119;BME280;10220;42.716;23.306;2023-02-13T08:50:26;97179.13;;;3.31;100.00
20119;BME280;10220;42.716;23.306;2023-02-13T08:52:52;97165.34;;;3.21;100.00
20119;BME280;10220;42.716;23.306;2023-02-13T08:55:17;97125.44;;;2.95;100.00
20119;BME280;10220;42.716;23.306;2023-02-13T08:57:43;97102.16;;;2.75;100.00
20119;BME280;10220;42.716;23.306;2023-02-13T09:00:08;97191.41;;;2.67;100.00
20119;BME280;10220;42.716;23.306;2023-02-13T09:02:34;97184.81;;;2.15;100.00
20119;BME280;10220;42.716;23.306;2023-02-13T09:04:59;97162.53;;;2.05;100.00
20119;BME280;10220;42.716;23.306;2023-02-13T09:07:25;97127.59;;;1.68;100.00
20119;BME280;10220;42.716;23.306;2023-02-13T09:09:50;97105.72;;;1.76;100.00
20119;BME280;10220;42.716;23.306;2023-02-13T09:12:16;97167.44;;;1.95;100.00
20119;BME280;10220;42.716;23.306;2023-02-13T09:14:41;97126.34;;;1.98;100.00
20119;BME280;10220;42.716;23.306;2023-02-13T09:17:07;97116.25;;;1.97;100.00
20119;BME280;10220;42.716;23.306;2023-02-13T09:22:47;97115.44;;;1.96;100.00
20119;BME280;10220;42.716;23.306;2023-02-13T09:25:13;97127.88;;;2.01;100.00
20119;BME280;10220;42.716;23.306;2023-02-13T09:27:38;97139.44;;;2.67;100.00
20119;BME280;10220;42.716;23.306;2023-02-13T09:30:06;97169.94;;;3.05;100.00
20119;BME280;10220;42.716;23.306;2023-02-13T09:32:31;97174.56;;;3.24;100.00
20119;BME280;10220;42.716;23.306;2023-02-13T09:34:58;97151.63;;;3.22;100.00
20119;BME280;10220;42.716;23.306;2023-02-13T09:37:24;97163.69;;;3.44;100.00
20119;BME280;10220;42.716;23.306;2023-02-13T09:39:51;97123.47;;;3.22;100.00
20119;BME280;10220;42.716;23.306;2023-02-13T09:42:24;97172.41;;;2.94;100.00
20119;BME280;10220;42.716;23.306;2023-02-13T09:45:00;97182.00;;;3.03;100.00
20119;BME280;10220;42.716;23.306;2023-02-13T09:47:30;97155.75;;;3.36;100.00
20119;BME280;10220;42.716;23.306;2023-02-13T09:50:23;97156.13;;;3.19;100.00
20119;BME280;10220;42.716;23.306;2023-02-13T09:52:51;97158.63;;;2.85;100.00
20119;BME280;10220;42.716;23.306;2023-02-13T09:55:27;97100.19;;;2.55;100.00
20119;BME280;10220;42.716;23.306;2023-02-13T10:00:42;97137.94;;;3.34;100.00
20119;BME280;10220;42.716;23.306;2023-02-13T10:03:22;97146.13;;;3.16;100.00
20119;BME280;10220;42.716;23.306;2023-02-13T10:06:02;97146.56;;;3.44;100.00
20119;BME280;10220;42.716;23.306;2023-02-13T10:11:13;97131.28;;;3.66;100.00
20119;BME280;10220;42.716;23.306;2023-02-13T10:14:22;97121.19;;;3.41;100.00
20119;BME280;10220;42.716;23.306;2023-02-13T10:16:53;97116.41;;;3.71;100.00
20119;BME280;10220;42.716;23.306;2023-02-13T10:22:04;97086.28;;;4.07;100.00
20119;BME280;10220;42.716;23.306;2023-02-13T10:27:48;97101.03;;;4.69;100.00
20119;BME280;10220;42.716;23.306;2023-02-13T10:30:21;97108.06;;;4.45;100.00
20119;BME280;10220;42.716;23.306;2023-02-13T10:32:58;97098.38;;;4.49;100.00
20119;BME280;10220;42.716;23.306;2023-02-13T10:38:43;97084.03;;;4.99;100.00
20119;BME280;10220;42.716;23.306;2023-02-13T10:43:49;97062.72;;;5.19;100.00
20119;BME280;10220;42.716;23.306;2023-02-13T10:52:22;97052.56;;;5.18;100.00
20119;BME280;10220;42.716;23.306;2023-02-13T11:00:29;97073.97;;;5.79;100.00
20119;BME280;10220;42.716;23.306;2023-02-13T11:02:58;97025.50;;;5.75;100.00
20119;BME280;10220;42.716;23.306;2023-02-13T11:05:29;97051.25;;;6.04;100.00
20119;BME280;10220;42.716;23.306;2023-02-13T11:07:55;97037.66;;;6.23;100.00
20119;BME280;10220;42.716;23.306;2023-02-13T11:10:24;97020.44;;;7.09;100.00
20119;BME280;10220;42.716;23.306;2023-02-13T11:12:50;97017.31;;;8.35;100.00
20119;BME280;10220;42.716;23.306;2023-02-13T11:15:27;97014.34;;;9.09;100.00
20119;BME280;10220;42.716;23.306;2023-02-13T11:17:55;97011.22;;;10.41;100.00
20119;BME280;10220;42.716;23.306;2023-02-13T11:20:34;97003.41;;;9.32;100.00
20119;BME280;10220;42.716;23.306;2023-02-13T11:28:21;96944.38;;;7.05;90.67
20119;BME280;10220;42.716;23.306;2023-02-13T11:30:46;96997.31;;;8.37;97.88
20119;BME280;10220;42.716;23.306;2023-02-13T11:35:42;96998.47;;;7.89;86.46
20119;BME280;10220;42.716;23.306;2023-02-13T11:40:40;96958.34;;;8.57;93.97
20119;BME280;10220;42.716;23.306;2023-02-13T11:43:16;96976.41;;;7.58;80.62
20119;BME280;10220;42.716;23.306;2023-02-13T11:45:42;96973.00;;;8.03;95.28
20119;BME280;10220;42.716;23.306;2023-02-13T11:48:18;96977.44;;;8.64;88.71
20119;BME280;10220;42.716;23.306;2023-02-13T11:50:50;96894.47;;;8.15;93.17
20119;BME280;10220;42.716;23.306;2023-02-13T11:53:22;96927.13;;;9.87;95.79
20119;BME280;10220;42.716;23.306;2023-02-13T11:56:06;96934.09;;;8.23;71.27
20119;BME280;10220;42.716;23.306;2023-02-13T11:58:32;96936.63;;;8.50;73.64
20119;BME280;10220;42.716;23.306;2023-02-13T12:04:14;96924.94;;;7.75;70.38
20119;BME280;10220;42.716;23.306;2023-02-13T12:06:57;96914.53;;;7.67;69.80
20119;BME280;10220;42.716;23.306;2023-02-13T12:09:23;96926.84;;;8.27;78.83
20119;BME280;10220;42.716;23.306;2023-02-13T12:11:53;96924.56;;;8.24;72.02
20119;BME280;10220;42.716;23.306;2023-02-13T12:14:26;96912.59;;;9.10;87.79
20119;BME280;10220;42.716;23.306;2023-02-13T12:17:00;96921.50;;;9.15;73.06
20119;BME280;10220;42.716;23.306;2023-02-13T12:19:32;96929.47;;;8.79;64.59
20119;BME280;10220;42.716;23.306;2023-02-13T12:27:43;96911.47;;;8.70;78.86
20119;BME280;10220;42.716;23.306;2023-02-13T12:33:12;96907.00;;;8.01;60.11
20119;BME280;10220;42.716;23.306;2023-02-13T12:39:33;96917.53;;;8.17;60.04
20119;BME280;10220;42.716;23.306;2023-02-13T12:41:28;96901.44;;;8.05;59.91
20119;BME280;10220;42.716;23.306;2023-02-13T12:52:31;96883.50;;;8.13;59.03
20119;BME280;10220;42.716;23.306;2023-02-13T12:55:01;96882.59;;;7.95;60.87
20119;BME280;10220;42.716;23.306;2023-02-13T13:03:19;96881.44;;;8.34;60.84
20119;BME280;10220;42.716;23.306;2023-02-13T13:06:06;96880.03;;;8.22;61.60
20119;BME280;10220;42.716;23.306;2023-02-13T13:09:10;96861.97;;;7.95;62.79
20119;BME280;10220;42.716;23.306;2023-02-13T13:14:42;96873.66;;;8.17;63.12
20119;BME280;10220;42.716;23.306;2023-02-13T13:20:06;96851.31;;;8.08;63.42
20119;BME280;10220;42.716;23.306;2023-02-13T13:22:48;96848.03;;;7.88;63.08
20119;BME280;10220;42.716;23.306;2023-02-13T13:28:06;96848.53;;;7.92;62.94
20119;BME280;10220;42.716;23.306;2023-02-13T13:30:34;96858.38;;;8.06;64.19
20119;BME280;10220;42.716;23.306;2023-02-13T13:33:22;96838.22;;;7.92;64.76
20119;BME280;10220;42.716;23.306;2023-02-13T13:36:02;96842.59;;;7.91;66.53
20119;BME280;10220;42.716;23.306;2023-02-13T13:41:10;96858.63;;;7.85;67.39
20119;BME280;10220;42.716;23.306;2023-02-13T13:43:49;96838.59;;;7.79;67.24
20119;BME280;10220;42.716;23.306;2023-02-13T13:51:42;96831.72;;;7.70;67.82
20119;BME280;10220;42.716;23.306;2023-02-13T14:07:46;96838.34;;;7.46;71.07
20119;BME280;10220;42.716;23.306;2023-02-13T14:10:56;96837.25;;;7.49;70.47
20119;BME280;10220;42.716;23.306;2023-02-13T14:13:02;96826.06;;;7.57;70.37
20119;BME280;10220;42.716;23.306;2023-02-13T14:23:31;96816.94;;;7.63;70.27
20119;BME280;10220;42.716;23.306;2023-02-13T14:31:29;96810.66;;;7.48;71.79
20119;BME280;10220;42.716;23.306;2023-02-13T14:36:41;96815.66;;;7.23;72.75
20119;BME280;10220;42.716;23.306;2023-02-13T14:39:19;96762.59;;;7.03;73.47
20119;BME280;10220;42.716;23.306;2023-02-13T14:41:57;96817.31;;;7.41;73.63
20119;BME280;10220;42.716;23.306;2023-02-13T14:44:47;96814.50;;;7.35;73.14
20119;BME280;10220;42.716;23.306;2023-02-13T14:47:40;96817.22;;;7.06;74.94
20119;BME280;10220;42.716;23.306;2023-02-13T14:50:15;96829.53;;;7.12;76.00
20119;BME280;10220;42.716;23.306;2023-02-13T14:52:45;96787.59;;;7.20;78.11
20119;BME280;10220;42.716;23.306;2023-02-13T14:55:16;96813.75;;;7.25;77.57
20119;BME280;10220;42.716;23.306;2023-02-13T14:57:52;96815.53;;;7.15;77.38
20119;BME280;10220;42.716;23.306;2023-02-13T15:03:28;96805.66;;;6.74;75.96
20119;BME280;10220;42.716;23.306;2023-02-13T15:06:00;96822.81;;;6.93;75.56
20119;BME280;10220;42.716;23.306;2023-02-13T15:08:31;96802.53;;;6.71;75.51
20119;BME280;10220;42.716;23.306;2023-02-13T15:10:59;96745.69;;;6.36;76.97
20119;BME280;10220;42.716;23.306;2023-02-13T15:13:32;96799.16;;;6.70;77.01
20119;BME280;10220;42.716;23.306;2023-02-13T15:16:02;96815.84;;;6.66;77.01
20119;BME280;10220;42.716;23.306;2023-02-13T15:18:33;96809.34;;;6.53;77.48
20119;BME280;10220;42.716;23.306;2023-02-13T15:21:01;96819.25;;;6.39;79.09
20119;BME280;10220;42.716;23.306;2023-02-13T15:23:32;96830.88;;;6.42;80.10
20119;BME280;10220;42.716;23.306;2023-02-13T15:26:05;96833.47;;;6.33;81.40
20119;BME280;10220;42.716;23.306;2023-02-13T15:28:32;96838.88;;;6.40;81.12
20119;BME280;10220;42.716;23.306;2023-02-13T15:31:04;96820.75;;;6.22;80.66
20119;BME280;10220;42.716;23.306;2023-02-13T15:33:44;96815.06;;;6.19;80.45
20119;BME280;10220;42.716;23.306;2023-02-13T15:36:16;96815.44;;;6.05;81.47
20119;BME280;10220;42.716;23.306;2023-02-13T15:38:42;96779.53;;;5.66;83.27
20119;BME280;10220;42.716;23.306;2023-02-13T15:41:11;96813.53;;;5.88;84.10
20119;BME280;10220;42.716;23.306;2023-02-13T15:43:42;96825.59;;;5.87;84.59
20119;BME280;10220;42.716;23.306;2023-02-13T15:46:20;96829.66;;;5.81;85.38